sensor_id;sensor_type;location;lat;lon;timestamp;P1;durP1;ratioP1;P2;durP2;ratioP2
11865;SDS011;5992;52.744;6.898;2023-07-20T00:01:22;1.30;;;0.87;;
11865;SDS011;5992;52.744;6.898;2023-07-20T00:04:35;1.13;;;0.70;;
11865;SDS011;5992;52.744;6.898;2023-07-20T00:07:47;0.70;;;0.70;;
11865;SDS011;5992;52.744;6.898;2023-07-20T00:11:04;0.97;;;0.97;;
11865;SDS011;5992;52.744;6.898;2023-07-20T00:14:04;0.93;;;0.93;;
11865;SDS011;5992;52.744;6.898;2023-07-20T00:17:28;0.80;;;0.80;;
11865;SDS011;5992;52.744;6.898;2023-07-20T00:20:41;1.27;;;1.00;;
11865;SDS011;5992;52.744;6.898;2023-07-20T00:24:06;1.33;;;0.97;;
11865;SDS011;5992;52.744;6.898;2023-07-20T00:27:18;1.10;;;1.00;;
11865;SDS011;5992;52.744;6.898;2023-07-20T00:30:30;0.90;;;0.87;;
11865;SDS011;5992;52.744;6.898;2023-07-20T00:33:30;1.17;;;0.97;;
11865;SDS011;5992;52.744;6.898;2023-07-20T00:36:43;1.00;;;1.00;;
11865;SDS011;5992;52.744;6.898;2023-07-20T00:39:56;0.70;;;0.70;;
11865;SDS011;5992;52.744;6.898;2023-07-20T00:43:09;1.80;;;0.77;;
11865;SDS011;5992;52.744;6.898;2023-07-20T00:46:21;0.87;;;0.87;;
11865;SDS011;5992;52.744;6.898;2023-07-20T00:49:46;0.90;;;0.90;;
11865;SDS011;5992;52.744;6.898;2023-07-20T00:52:48;0.97;;;0.97;;
11865;SDS011;5992;52.744;6.898;2023-07-20T00:56:14;1.43;;;0.63;;
11865;SDS011;5992;52.744;6.898;2023-07-20T00:59:26;1.37;;;1.17;;
11865;SDS011;5992;52.744;6.898;2023-07-20T01:02:51;0.60;;;0.60;;
11865;SDS011;5992;52.744;6.898;2023-07-20T01:06:05;0.90;;;0.90;;
11865;SDS011;5992;52.744;6.898;2023-07-20T01:09:31;1.60;;;1.03;;
11865;SDS011;5992;52.744;6.898;2023-07-20T01:12:56;0.90;;;0.90;;
11865;SDS011;5992;52.744;6.898;2023-07-20T01:16:20;0.70;;;0.70;;
11865;SDS011;5992;52.744;6.898;2023-07-20T01:19:20;0.83;;;0.83;;
11865;SDS011;5992;52.744;6.898;2023-07-20T01:23:00;0.80;;;0.80;;
11865;SDS011;5992;52.744;6.898;2023-07-20T01:26:31;0.83;;;0.83;;
11865;SDS011;5992;52.744;6.898;2023-07-20T01:29:55;1.00;;;1.00;;
11865;SDS011;5992;52.744;6.898;2023-07-20T01:33:08;1.40;;;1.00;;
11865;SDS011;5992;52.744;6.898;2023-07-20T01:36:34;1.20;;;1.20;;
11865;SDS011;5992;52.744;6.898;2023-07-20T01:39:48;1.20;;;0.93;;
11865;SDS011;5992;52.744;6.898;2023-07-20T01:43:13;1.10;;;1.10;;
11865;SDS011;5992;52.744;6.898;2023-07-20T01:46:25;1.10;;;1.10;;
11865;SDS011;5992;52.744;6.898;2023-07-20T01:49:52;1.10;;;1.10;;
11865;SDS011;5992;52.744;6.898;2023-07-20T01:53:04;1.07;;;1.07;;
11865;SDS011;5992;52.744;6.898;2023-07-20T01:56:16;1.30;;;1.20;;
11865;SDS011;5992;52.744;6.898;2023-07-20T01:59:17;1.07;;;1.07;;
11865;SDS011;5992;52.744;6.898;2023-07-20T02:02:29;2.70;;;1.37;;
11865;SDS011;5992;52.744;6.898;2023-07-20T02:05:43;1.10;;;1.10;;
11865;SDS011;5992;52.744;6.898;2023-07-20T02:08:57;1.10;;;1.10;;
11865;SDS011;5992;52.744;6.898;2023-07-20T02:12:09;1.15;;;1.15;;
11865;SDS011;5992;52.744;6.898;2023-07-20T02:15:21;2.20;;;1.13;;
11865;SDS011;5992;52.744;6.898;2023-07-20T02:18:46;1.50;;;1.40;;
11865;SDS011;5992;52.744;6.898;2023-07-20T02:21:59;1.83;;;1.43;;
11865;SDS011;5992;52.744;6.898;2023-07-20T02:25:12;1.67;;;1.53;;
11865;SDS011;5992;52.744;6.898;2023-07-20T02:28:24;1.23;;;1.23;;
11865;SDS011;5992;52.744;6.898;2023-07-20T02:31:24;1.20;;;1.20;;
11865;SDS011;5992;52.744;6.898;2023-07-20T02:34:37;1.40;;;1.20;;
11865;SDS011;5992;52.744;6.898;2023-07-20T02:37:38;1.40;;;1.40;;
11865;SDS011;5992;52.744;6.898;2023-07-20T02:41:04;1.40;;;1.20;;
11865;SDS011;5992;52.744;6.898;2023-07-20T02:44:04;1.77;;;1.57;;
11865;SDS011;5992;52.744;6.898;2023-07-20T02:47:17;1.90;;;1.40;;
11865;SDS011;5992;52.744;6.898;2023-07-20T02:50:17;1.40;;;1.40;;
11865;SDS011;5992;52.744;6.898;2023-07-20T02:53:31;2.10;;;1.90;;
11865;SDS011;5992;52.744;6.898;2023-07-20T02:56:44;1.60;;;1.50;;
11865;SDS011;5992;52.744;6.898;2023-07-20T02:59:56;1.67;;;1.57;;
11865;SDS011;5992;52.744;6.898;2023-07-20T03:03:08;1.77;;;1.67;;
11865;SDS011;5992;52.744;6.898;2023-07-20T03:06:20;1.93;;;1.77;;
11865;SDS011;5992;52.744;6.898;2023-07-20T03:09:33;2.10;;;2.00;;
11865;SDS011;5992;52.744;6.898;2023-07-20T03:12:58;1.83;;;1.67;;
11865;SDS011;5992;52.744;6.898;2023-07-20T03:16:23;2.10;;;2.00;;
11865;SDS011;5992;52.744;6.898;2023-07-20T03:19:47;2.10;;;2.00;;
11865;SDS011;5992;52.744;6.898;2023-07-20T03:22:59;2.17;;;1.83;;
11865;SDS011;5992;52.744;6.898;2023-07-20T03:26:14;2.57;;;2.37;;
11865;SDS011;5992;52.744;6.898;2023-07-20T03:29:38;2.30;;;2.10;;
11865;SDS011;5992;52.744;6.898;2023-07-20T03:33:02;2.25;;;2.15;;
11865;SDS011;5992;52.744;6.898;2023-07-20T03:36:15;1.53;;;1.47;;
11865;SDS011;5992;52.744;6.898;2023-07-20T03:39:28;1.80;;;1.70;;
11865;SDS011;5992;52.744;6.898;2023-07-20T03:42:30;1.90;;;1.80;;
11865;SDS011;5992;52.744;6.898;2023-07-20T03:45:54;2.17;;;2.00;;
11865;SDS011;5992;52.744;6.898;2023-07-20T03:48:54;2.00;;;1.90;;
11865;SDS011;5992;52.744;6.898;2023-07-20T03:52:07;2.33;;;2.00;;
11865;SDS011;5992;52.744;6.898;2023-07-20T03:55:08;2.00;;;1.90;;
11865;SDS011;5992;52.744;6.898;2023-07-20T03:58:23;1.90;;;1.80;;
11865;SDS011;5992;52.744;6.898;2023-07-20T04:01:35;6.93;;;2.30;;
11865;SDS011;5992;52.744;6.898;2023-07-20T04:04:48;1.87;;;1.77;;
11865;SDS011;5992;52.744;6.898;2023-07-20T04:08:00;2.10;;;1.90;;
11865;SDS011;5992;52.744;6.898;2023-07-20T04:11:12;2.07;;;1.97;;
11865;SDS011;5992;52.744;6.898;2023-07-20T04:14:26;2.10;;;1.90;;
11865;SDS011;5992;52.744;6.898;2023-07-20T04:17:50;2.43;;;2.23;;
11865;SDS011;5992;52.744;6.898;2023-07-20T04:20:50;2.23;;;2.07;;
11865;SDS011;5992;52.744;6.898;2023-07-20T04:24:03;2.93;;;2.20;;
11865;SDS011;5992;52.744;6.898;2023-07-20T04:27:16;1.60;;;1.50;;
11865;SDS011;5992;52.744;6.898;2023-07-20T04:30:32;1.97;;;1.87;;
11865;SDS011;5992;52.744;6.898;2023-07-20T04:33:44;2.00;;;1.80;;
11865;SDS011;5992;52.744;6.898;2023-07-20T04:36:57;1.90;;;1.80;;
11865;SDS011;5992;52.744;6.898;2023-07-20T04:40:10;1.90;;;1.60;;
11865;SDS011;5992;52.744;6.898;2023-07-20T04:43:23;2.07;;;1.97;;
11865;SDS011;5992;52.744;6.898;2023-07-20T04:46:37;1.90;;;1.80;;
11865;SDS011;5992;52.744;6.898;2023-07-20T04:50:00;1.70;;;1.60;;
11865;SDS011;5992;52.744;6.898;2023-07-20T04:53:12;3.43;;;1.60;;
11865;SDS011;5992;52.744;6.898;2023-07-20T04:56:25;1.70;;;1.60;;
11865;SDS011;5992;52.744;6.898;2023-07-20T04:59:37;1.60;;;1.50;;
11865;SDS011;5992;52.744;6.898;2023-07-20T05:02:52;2.57;;;2.13;;
11865;SDS011;5992;52.744;6.898;2023-07-20T05:06:05;1.53;;;1.43;;
11865;SDS011;5992;52.744;6.898;2023-07-20T05:09:30;2.03;;;1.90;;
11865;SDS011;5992;52.744;6.898;2023-07-20T05:12:42;2.00;;;1.80;;
11865;SDS011;5992;52.744;6.898;2023-07-20T05:15:55;1.63;;;1.53;;
11865;SDS011;5992;52.744;6.898;2023-07-20T05:19:09;1.60;;;1.53;;
11865;SDS011;5992;52.744;6.898;2023-07-20T05:22:35;1.90;;;1.70;;
11865;SDS011;5992;52.744;6.898;2023-07-20T05:25:59;1.70;;;1.50;;
11865;SDS011;5992;52.744;6.898;2023-07-20T05:29:23;1.60;;;1.50;;
11865;SDS011;5992;52.744;6.898;2023-07-20T05:32:24;1.40;;;1.40;;
11865;SDS011;5992;52.744;6.898;2023-07-20T05:35:38;1.43;;;1.33;;
11865;SDS011;5992;52.744;6.898;2023-07-20T05:38:51;1.50;;;1.40;;
11865;SDS011;5992;52.744;6.898;2023-07-20T05:42:16;1.43;;;1.27;;
11865;SDS011;5992;52.744;6.898;2023-07-20T05:45:28;0.93;;;0.93;;
11865;SDS011;5992;52.744;6.898;2023-07-20T05:48:40;1.53;;;1.00;;
11865;SDS011;5992;52.744;6.898;2023-07-20T05:51:41;1.13;;;0.97;;
11865;SDS011;5992;52.744;6.898;2023-07-20T05:55:07;2.27;;;1.20;;
11865;SDS011;5992;52.744;6.898;2023-07-20T05:58:08;3.37;;;0.90;;
11865;SDS011;5992;52.744;6.898;2023-07-20T06:01:21;1.40;;;1.30;;
11865;SDS011;5992;52.744;6.898;2023-07-20T06:04:45;3.13;;;1.07;;
11865;SDS011;5992;52.744;6.898;2023-07-20T06:07:58;1.10;;;0.80;;
11865;SDS011;5992;52.744;6.898;2023-07-20T06:11:24;0.80;;;0.80;;
11865;SDS011;5992;52.744;6.898;2023-07-20T06:14:24;0.83;;;0.83;;
11865;SDS011;5992;52.744;6.898;2023-07-20T06:17:37;0.80;;;0.70;;
11865;SDS011;5992;52.744;6.898;2023-07-20T06:20:37;0.87;;;0.80;;
11865;SDS011;5992;52.744;6.898;2023-07-20T06:23:50;0.90;;;0.90;;
11865;SDS011;5992;52.744;6.898;2023-07-20T06:27:03;0.80;;;0.80;;
11865;SDS011;5992;52.744;6.898;2023-07-20T06:30:17;0.70;;;0.70;;
11865;SDS011;5992;52.744;6.898;2023-07-20T06:33:17;0.70;;;0.70;;
11865;SDS011;5992;52.744;6.898;2023-07-20T06:36:29;0.60;;;0.60;;
11865;SDS011;5992;52.744;6.898;2023-07-20T06:39:30;1.20;;;0.67;;
11865;SDS011;5992;52.744;6.898;2023-07-20T06:42:55;2.63;;;0.80;;
11865;SDS011;5992;52.744;6.898;2023-07-20T06:45:55;0.80;;;0.80;;
11865;SDS011;5992;52.744;6.898;2023-07-20T06:49:07;1.05;;;0.55;;
11865;SDS011;5992;52.744;6.898;2023-07-20T06:52:08;2.70;;;0.80;;
11865;SDS011;5992;52.744;6.898;2023-07-20T06:55:21;0.70;;;0.70;;
11865;SDS011;5992;52.744;6.898;2023-07-20T06:58:34;0.57;;;0.57;;
11865;SDS011;5992;52.744;6.898;2023-07-20T07:01:46;0.80;;;0.80;;
11865;SDS011;5992;52.744;6.898;2023-07-20T07:04:46;2.70;;;0.75;;
11865;SDS011;5992;52.744;6.898;2023-07-20T07:08:00;0.40;;;0.40;;
11865;SDS011;5992;52.744;6.898;2023-07-20T07:11:01;1.07;;;0.50;;
11865;SDS011;5992;52.744;6.898;2023-07-20T07:14:27;0.55;;;0.50;;
11865;SDS011;5992;52.744;6.898;2023-07-20T07:17:27;0.90;;;0.60;;
11865;SDS011;5992;52.744;6.898;2023-07-20T07:20:40;1.27;;;0.60;;
11865;SDS011;5992;52.744;6.898;2023-07-20T07:23:40;0.90;;;0.70;;
11865;SDS011;5992;52.744;6.898;2023-07-20T07:26:53;0.87;;;0.60;;
11865;SDS011;5992;52.744;6.898;2023-07-20T07:30:06;0.57;;;0.40;;
11865;SDS011;5992;52.744;6.898;2023-07-20T07:33:19;0.60;;;0.45;;
11865;SDS011;5992;52.744;6.898;2023-07-20T07:36:20;1.20;;;0.65;;
11865;SDS011;5992;52.744;6.898;2023-07-20T07:39:34;0.70;;;0.50;;
11865;SDS011;5992;52.744;6.898;2023-07-20T07:42:36;0.90;;;0.50;;
11865;SDS011;5992;52.744;6.898;2023-07-20T07:46:02;2.07;;;0.90;;
11865;SDS011;5992;52.744;6.898;2023-07-20T07:49:02;0.63;;;0.43;;
11865;SDS011;5992;52.744;6.898;2023-07-20T07:52:15;1.13;;;0.70;;
11865;SDS011;5992;52.744;6.898;2023-07-20T07:55:27;1.67;;;0.60;;
11865;SDS011;5992;52.744;6.898;2023-07-20T07:58:34;1.30;;;0.50;;
11865;SDS011;5992;52.744;6.898;2023-07-20T08:01:47;0.70;;;0.70;;
11865;SDS011;5992;52.744;6.898;2023-07-20T08:05:00;1.87;;;0.70;;
11865;SDS011;5992;52.744;6.898;2023-07-20T08:08:01;0.70;;;0.55;;
11865;SDS011;5992;52.744;6.898;2023-07-20T08:11:14;0.85;;;0.60;;
11865;SDS011;5992;52.744;6.898;2023-07-20T08:14:15;1.60;;;0.50;;
11865;SDS011;5992;52.744;6.898;2023-07-20T08:17:41;1.25;;;0.75;;
11865;SDS011;5992;52.744;6.898;2023-07-20T08:20:53;1.27;;;0.80;;
11865;SDS011;5992;52.744;6.898;2023-07-20T08:24:05;0.70;;;0.40;;
11865;SDS011;5992;52.744;6.898;2023-07-20T08:27:06;2.37;;;0.70;;
11865;SDS011;5992;52.744;6.898;2023-07-20T08:30:40;2.00;;;0.63;;
11865;SDS011;5992;52.744;6.898;2023-07-20T08:33:52;0.53;;;0.50;;
11865;SDS011;5992;52.744;6.898;2023-07-20T08:37:05;0.67;;;0.67;;
11865;SDS011;5992;52.744;6.898;2023-07-20T08:40:05;0.60;;;0.60;;
11865;SDS011;5992;52.744;6.898;2023-07-20T08:43:18;3.20;;;0.67;;
11865;SDS011;5992;52.744;6.898;2023-07-20T08:46:19;0.70;;;0.60;;
11865;SDS011;5992;52.744;6.898;2023-07-20T08:49:46;2.43;;;0.70;;
11865;SDS011;5992;52.744;6.898;2023-07-20T08:52:59;0.50;;;0.50;;
11865;SDS011;5992;52.744;6.898;2023-07-20T08:56:23;1.53;;;0.90;;
11865;SDS011;5992;52.744;6.898;2023-07-20T08:59:35;3.30;;;0.73;;
11865;SDS011;5992;52.744;6.898;2023-07-20T09:03:02;1.50;;;0.50;;
11865;SDS011;5992;52.744;6.898;2023-07-20T09:06:14;1.30;;;0.80;;
11865;SDS011;5992;52.744;6.898;2023-07-20T09:09:39;1.33;;;0.90;;
11865;SDS011;5992;52.744;6.898;2023-07-20T09:12:51;1.37;;;0.40;;
11865;SDS011;5992;52.744;6.898;2023-07-20T09:16:03;0.57;;;0.57;;
11865;SDS011;5992;52.744;6.898;2023-07-20T09:19:17;0.80;;;0.70;;
11865;SDS011;5992;52.744;6.898;2023-07-20T09:22:42;0.93;;;0.53;;
11865;SDS011;5992;52.744;6.898;2023-07-20T09:25:54;3.77;;;0.80;;
11865;SDS011;5992;52.744;6.898;2023-07-20T09:29:07;1.17;;;0.70;;
11865;SDS011;5992;52.744;6.898;2023-07-20T09:32:18;1.63;;;0.57;;
11865;SDS011;5992;52.744;6.898;2023-07-20T09:35:44;0.53;;;0.53;;
11865;SDS011;5992;52.744;6.898;2023-07-20T09:38:56;1.03;;;0.50;;
11865;SDS011;5992;52.744;6.898;2023-07-20T09:42:21;1.40;;;0.70;;
11865;SDS011;5992;52.744;6.898;2023-07-20T09:51:47;1.00;;;0.80;;
11865;SDS011;5992;52.744;6.898;2023-07-20T12:05:39;0.70;;;0.70;;
11865;SDS011;5992;52.744;6.898;2023-07-20T12:08:54;1.90;;;0.70;;
11865;SDS011;5992;52.744;6.898;2023-07-20T12:12:18;0.65;;;0.50;;
11865;SDS011;5992;52.744;6.898;2023-07-20T12:15:30;1.10;;;0.90;;
11865;SDS011;5992;52.744;6.898;2023-07-20T12:21:43;0.65;;;0.55;;
11865;SDS011;5992;52.744;6.898;2023-07-20T12:31:20;1.10;;;1.00;;
11865;SDS011;5992;52.744;6.898;2023-07-20T12:34:32;0.80;;;0.80;;
11865;SDS011;5992;52.744;6.898;2023-07-20T12:37:47;0.80;;;0.80;;
11865;SDS011;5992;52.744;6.898;2023-07-20T12:41:00;0.60;;;0.60;;
11865;SDS011;5992;52.744;6.898;2023-07-20T12:53:39;0.70;;;0.70;;
11865;SDS011;5992;52.744;6.898;2023-07-20T12:57:04;0.85;;;0.85;;
11865;SDS011;5992;52.744;6.898;2023-07-20T13:03:18;1.00;;;1.00;;
11865;SDS011;5992;52.744;6.898;2023-07-20T13:06:18;1.30;;;0.80;;
11865;SDS011;5992;52.744;6.898;2023-07-20T16:55:59;1.60;;;1.40;;
11865;SDS011;5992;52.744;6.898;2023-07-20T16:59:24;8.40;;;1.25;;
11865;SDS011;5992;52.744;6.898;2023-07-20T17:02:24;1.30;;;1.20;;
11865;SDS011;5992;52.744;6.898;2023-07-20T17:05:36;1.20;;;1.10;;
11865;SDS011;5992;52.744;6.898;2023-07-20T17:08:36;1.60;;;1.50;;
11865;SDS011;5992;52.744;6.898;2023-07-20T17:11:50;2.30;;;1.40;;
11865;SDS011;5992;52.744;6.898;2023-07-20T17:15:03;1.75;;;1.40;;
11865;SDS011;5992;52.744;6.898;2023-07-20T17:18:16;1.20;;;1.10;;
11865;SDS011;5992;52.744;6.898;2023-07-20T17:21:28;2.33;;;1.33;;
11865;SDS011;5992;52.744;6.898;2023-07-20T17:24:52;1.50;;;1.40;;
11865;SDS011;5992;52.744;6.898;2023-07-20T17:27:53;2.00;;;1.30;;
11865;SDS011;5992;52.744;6.898;2023-07-20T17:31:18;3.07;;;1.73;;
11865;SDS011;5992;52.744;6.898;2023-07-20T17:34:18;2.13;;;1.30;;
11865;SDS011;5992;52.744;6.898;2023-07-20T17:37:31;2.17;;;1.23;;
11865;SDS011;5992;52.744;6.898;2023-07-20T17:40:31;0.90;;;0.90;;
11865;SDS011;5992;52.744;6.898;2023-07-20T17:43:44;1.80;;;1.20;;
11865;SDS011;5992;52.744;6.898;2023-07-20T17:46:57;1.40;;;1.30;;
11865;SDS011;5992;52.744;6.898;2023-07-20T17:50:09;1.50;;;1.10;;
11865;SDS011;5992;52.744;6.898;2023-07-20T17:53:21;2.20;;;1.60;;
11865;SDS011;5992;52.744;6.898;2023-07-20T17:56:34;3.23;;;1.60;;
11865;SDS011;5992;52.744;6.898;2023-07-20T17:59:35;1.40;;;1.10;;
11865;SDS011;5992;52.744;6.898;2023-07-20T18:03:01;1.87;;;1.30;;
11865;SDS011;5992;52.744;6.898;2023-07-20T18:06:04;1.83;;;1.50;;
11865;SDS011;5992;52.744;6.898;2023-07-20T18:09:29;2.63;;;1.67;;
11865;SDS011;5992;52.744;6.898;2023-07-20T18:12:29;1.50;;;1.40;;
11865;SDS011;5992;52.744;6.898;2023-07-20T18:15:55;3.23;;;1.60;;
11865;SDS011;5992;52.744;6.898;2023-07-20T18:19:08;2.93;;;1.53;;
11865;SDS011;5992;52.744;6.898;2023-07-20T18:22:21;1.83;;;1.47;;
11865;SDS011;5992;52.744;6.898;2023-07-20T18:25:33;2.00;;;1.10;;
11865;SDS011;5992;52.744;6.898;2023-07-20T18:28:45;1.87;;;1.43;;
11865;SDS011;5992;52.744;6.898;2023-07-20T18:31:46;1.93;;;1.20;;
11865;SDS011;5992;52.744;6.898;2023-07-20T18:35:18;1.47;;;1.30;;
11865;SDS011;5992;52.744;6.898;2023-07-20T18:38:18;1.30;;;1.30;;
11865;SDS011;5992;52.744;6.898;2023-07-20T18:41:31;1.50;;;1.40;;
11865;SDS011;5992;52.744;6.898;2023-07-20T18:44:31;2.20;;;1.30;;
11865;SDS011;5992;52.744;6.898;2023-07-20T18:47:57;1.35;;;1.25;;
11865;SDS011;5992;52.744;6.898;2023-07-20T18:51:10;4.23;;;1.53;;
11865;SDS011;5992;52.744;6.898;2023-07-20T18:54:34;6.20;;;2.00;;
11865;SDS011;5992;52.744;6.898;2023-07-20T18:57:34;2.50;;;1.20;;
11865;SDS011;5992;52.744;6.898;2023-07-20T19:00:58;1.83;;;1.10;;
11865;SDS011;5992;52.744;6.898;2023-07-20T19:04:11;1.40;;;1.30;;
11865;SDS011;5992;52.744;6.898;2023-07-20T19:07:39;2.30;;;1.23;;
11865;SDS011;5992;52.744;6.898;2023-07-20T19:10:51;5.90;;;1.43;;
11865;SDS011;5992;52.744;6.898;2023-07-20T19:14:05;1.30;;;1.20;;
11865;SDS011;5992;52.744;6.898;2023-07-20T19:17:05;2.15;;;1.35;;
11865;SDS011;5992;52.744;6.898;2023-07-20T19:20:30;1.83;;;1.40;;
11865;SDS011;5992;52.744;6.898;2023-07-20T19:23:43;1.53;;;1.13;;
11865;SDS011;5992;52.744;6.898;2023-07-20T19:26:56;1.40;;;1.30;;
11865;SDS011;5992;52.744;6.898;2023-07-20T19:29:56;1.20;;;1.10;;
11865;SDS011;5992;52.744;6.898;2023-07-20T19:33:10;1.35;;;1.15;;
11865;SDS011;5992;52.744;6.898;2023-07-20T19:36:11;1.75;;;1.20;;
11865;SDS011;5992;52.744;6.898;2023-07-20T19:39:37;2.20;;;1.67;;
11865;SDS011;5992;52.744;6.898;2023-07-20T19:42:37;1.77;;;1.33;;
11865;SDS011;5992;52.744;6.898;2023-07-20T19:45:49;1.23;;;1.20;;
11865;SDS011;5992;52.744;6.898;2023-07-20T19:49:01;1.70;;;1.25;;
11865;SDS011;5992;52.744;6.898;2023-07-20T19:52:14;3.30;;;1.20;;
11865;SDS011;5992;52.744;6.898;2023-07-20T19:55:27;2.65;;;1.60;;
11865;SDS011;5992;52.744;6.898;2023-07-20T19:58:52;3.10;;;1.25;;
11865;SDS011;5992;52.744;6.898;2023-07-20T20:01:52;5.33;;;1.23;;
11865;SDS011;5992;52.744;6.898;2023-07-20T20:05:05;1.80;;;1.40;;
11865;SDS011;5992;52.744;6.898;2023-07-20T20:08:08;1.77;;;1.27;;
11865;SDS011;5992;52.744;6.898;2023-07-20T20:11:33;1.57;;;1.10;;
11865;SDS011;5992;52.744;6.898;2023-07-20T20:14:33;2.30;;;1.50;;
11865;SDS011;5992;52.744;6.898;2023-07-20T20:17:57;2.65;;;1.30;;
11865;SDS011;5992;52.744;6.898;2023-07-20T20:20:58;1.67;;;1.13;;
11865;SDS011;5992;52.744;6.898;2023-07-20T20:24:12;2.27;;;1.50;;
11865;SDS011;5992;52.744;6.898;2023-07-20T20:27:24;1.70;;;1.20;;
11865;SDS011;5992;52.744;6.898;2023-07-20T20:30:37;1.50;;;1.40;;
11865;SDS011;5992;52.744;6.898;2023-07-20T20:33:49;1.50;;;1.25;;
11865;SDS011;5992;52.744;6.898;2023-07-20T20:37:02;2.40;;;1.13;;
11865;SDS011;5992;52.744;6.898;2023-07-20T20:40:06;5.70;;;2.30;;
11865;SDS011;5992;52.744;6.898;2023-07-20T20:43:31;1.20;;;1.10;;
11865;SDS011;5992;52.744;6.898;2023-07-20T20:46:31;2.17;;;2.00;;
11865;SDS011;5992;52.744;6.898;2023-07-20T20:49:43;2.93;;;1.90;;
11865;SDS011;5992;52.744;6.898;2023-07-20T20:52:45;1.40;;;1.30;;
11865;SDS011;5992;52.744;6.898;2023-07-20T20:56:11;1.50;;;1.40;;
11865;SDS011;5992;52.744;6.898;2023-07-20T20:59:23;2.30;;;1.80;;
11865;SDS011;5992;52.744;6.898;2023-07-20T21:02:35;1.60;;;1.50;;
11865;SDS011;5992;52.744;6.898;2023-07-20T21:05:35;1.53;;;1.43;;
11865;SDS011;5992;52.744;6.898;2023-07-20T21:08:51;1.67;;;1.57;;
11865;SDS011;5992;52.744;6.898;2023-07-20T21:12:05;1.57;;;1.37;;
11865;SDS011;5992;52.744;6.898;2023-07-20T21:15:30;2.57;;;1.47;;
11865;SDS011;5992;52.744;6.898;2023-07-20T21:18:54;2.97;;;2.27;;
11865;SDS011;5992;52.744;6.898;2023-07-20T21:22:06;1.87;;;1.50;;
11865;SDS011;5992;52.744;6.898;2023-07-20T21:25:07;4.37;;;1.50;;
11865;SDS011;5992;52.744;6.898;2023-07-20T21:28:22;5.70;;;1.80;;
11865;SDS011;5992;52.744;6.898;2023-07-20T21:31:34;2.40;;;1.43;;
11865;SDS011;5992;52.744;6.898;2023-07-20T21:34:59;3.80;;;1.30;;
11865;SDS011;5992;52.744;6.898;2023-07-20T21:37:59;2.60;;;1.20;;
11865;SDS011;5992;52.744;6.898;2023-07-20T21:41:11;3.70;;;1.80;;
11865;SDS011;5992;52.744;6.898;2023-07-20T21:44:13;2.83;;;1.20;;
11865;SDS011;5992;52.744;6.898;2023-07-20T21:47:38;2.37;;;1.23;;
11865;SDS011;5992;52.744;6.898;2023-07-20T21:50:38;1.37;;;1.10;;
11865;SDS011;5992;52.744;6.898;2023-07-20T21:53:50;3.83;;;1.43;;
11865;SDS011;5992;52.744;6.898;2023-07-20T21:56:50;0.70;;;0.70;;
11865;SDS011;5992;52.744;6.898;2023-07-20T22:00:06;1.73;;;1.33;;
11865;SDS011;5992;52.744;6.898;2023-07-20T22:03:30;2.60;;;1.50;;
11865;SDS011;5992;52.744;6.898;2023-07-20T22:06:31;1.50;;;1.13;;
11865;SDS011;5992;52.744;6.898;2023-07-20T22:09:43;2.10;;;1.50;;
11865;SDS011;5992;52.744;6.898;2023-07-20T22:12:42;2.85;;;1.80;;
11865;SDS011;5992;52.744;6.898;2023-07-20T22:15:57;2.87;;;1.60;;
11865;SDS011;5992;52.744;6.898;2023-07-20T22:19:10;2.53;;;1.30;;
11865;SDS011;5992;52.744;6.898;2023-07-20T22:22:34;1.40;;;1.30;;
11865;SDS011;5992;52.744;6.898;2023-07-20T22:25:34;2.47;;;1.60;;
11865;SDS011;5992;52.744;6.898;2023-07-20T22:28:47;2.10;;;1.10;;
11865;SDS011;5992;52.744;6.898;2023-07-20T22:31:48;3.30;;;1.60;;
11865;SDS011;5992;52.744;6.898;2023-07-20T22:35:13;1.80;;;1.50;;
11865;SDS011;5992;52.744;6.898;2023-07-20T22:38:25;1.93;;;1.27;;
11865;SDS011;5992;52.744;6.898;2023-07-20T22:41:37;3.90;;;1.80;;
11865;SDS011;5992;52.744;6.898;2023-07-20T22:44:37;1.40;;;1.30;;
11865;SDS011;5992;52.744;6.898;2023-07-20T22:47:51;1.60;;;1.47;;
11865;SDS011;5992;52.744;6.898;2023-07-20T22:51:07;2.27;;;1.37;;
11865;SDS011;5992;52.744;6.898;2023-07-20T22:54:20;4.97;;;2.07;;
11865;SDS011;5992;52.744;6.898;2023-07-20T22:57:20;2.07;;;1.87;;
11865;SDS011;5992;52.744;6.898;2023-07-20T23:00:46;1.30;;;1.20;;
11865;SDS011;5992;52.744;6.898;2023-07-20T23:03:47;4.17;;;1.50;;
11865;SDS011;5992;52.744;6.898;2023-07-20T23:07:12;2.60;;;1.43;;
11865;SDS011;5992;52.744;6.898;2023-07-20T23:10:12;1.77;;;1.30;;
11865;SDS011;5992;52.744;6.898;2023-07-20T23:13:27;2.83;;;1.10;;
11865;SDS011;5992;52.744;6.898;2023-07-20T23:16:27;1.30;;;1.20;;
11865;SDS011;5992;52.744;6.898;2023-07-20T23:19:41;1.53;;;1.40;;
11865;SDS011;5992;52.744;6.898;2023-07-20T23:22:55;3.05;;;1.30;;
11865;SDS011;5992;52.744;6.898;2023-07-20T23:26:19;1.87;;;1.40;;
11865;SDS011;5992;52.744;6.898;2023-07-20T23:29:19;2.30;;;1.13;;
11865;SDS011;5992;52.744;6.898;2023-07-20T23:32:31;2.77;;;1.50;;
11865;SDS011;5992;52.744;6.898;2023-07-20T23:35:44;3.00;;;1.17;;
11865;SDS011;5992;52.744;6.898;2023-07-20T23:39:09;1.40;;;1.30;;
11865;SDS011;5992;52.744;6.898;2023-07-20T23:42:09;1.20;;;1.05;;
11865;SDS011;5992;52.744;6.898;2023-07-20T23:45:22;2.87;;;1.40;;
11865;SDS011;5992;52.744;6.898;2023-07-20T23:48:23;2.20;;;1.20;;
11865;SDS011;5992;52.744;6.898;2023-07-20T23:51:36;2.90;;;1.30;;
11865;SDS011;5992;52.744;6.898;2023-07-20T23:54:49;0.83;;;0.83;;
11865;SDS011;5992;52.744;6.898;2023-07-20T23:58:03;1.30;;;1.20;;
